Time;durP1;ratioP1;P1;durP2;ratioP2;P2;SDS_P1;SDS_P2;PMS_P1;PMS_P2;Temp;Humidity;BMP_temperature;BMP_pressure;BME280_temperature;BME280_humidity;BME280_pressure;Samples;Min_cycle;Max_cycle;Signal;HPM_P1;HPM_P2
2021/10/06 00:01:12;;;;;;;6.75;3.13;;;;;;;10.82;100.00;100269.06;5076279;28;20055;-87
2021/10/06 00:03:38;;;;;;;4.85;2.72;;;;;;;10.81;100.00;100272.75;5057342;28;20068;-86
2021/10/06 00:06:05;;;;;;;6.20;3.53;;;;;;;10.83;100.00;100270.72;5060448;28;20068;-87
2021/10/06 00:08:31;;;;;;;5.72;3.17;;;;;;;10.81;100.00;100275.44;5070007;28;20032;-82
2021/10/06 00:10:58;;;;;;;10.38;3.42;;;;;;;10.82;100.00;100274.44;5074814;28;20106;-83
2021/10/06 00:13:24;;;;;;;8.00;4.00;;;;;;;10.80;100.00;100271.91;5054604;28;20127;-88
2021/10/06 00:15:49;;;;;;;8.15;3.30;;;;;;;10.81;100.00;100278.13;5048506;28;20075;-82
2021/10/06 00:18:24;;;;;;;7.53;3.53;;;;;;;10.85;100.00;100284.81;5061020;28;20435;-83
2021/10/06 00:20:51;;;;;;;6.82;3.30;;;;;;;10.84;100.00;100289.31;5075920;28;20594;-82
2021/10/06 00:23:16;;;;;;;9.60;4.00;;;;;;;10.83;100.00;100287.66;5060032;28;20072;-83
2021/10/06 00:25:42;;;;;;;7.97;3.65;;;;;;;10.83;100.00;100292.19;5028519;28;20099;-89
2021/10/06 00:28:11;;;;;;;6.53;3.63;;;;;;;10.82;100.00;100291.38;5034103;28;20116;-83
2021/10/06 00:30:38;;;;;;;8.80;4.18;;;;;;;10.81;100.00;100289.69;5044619;28;20132;-90
2021/10/06 00:33:05;;;;;;;9.18;3.70;;;;;;;10.79;100.00;100290.91;5023443;28;20094;-84
2021/10/06 00:35:31;;;;;;;7.18;4.28;;;;;;;10.77;100.00;100299.13;5043083;28;20098;-86
2021/10/06 00:37:56;;;;;;;8.93;4.63;;;;;;;10.76;100.00;100292.09;5036093;28;20067;-85
2021/10/06 00:40:22;;;;;;;6.80;3.72;;;;;;;10.77;100.00;100292.91;5048206;28;20123;-84
2021/10/06 00:42:47;;;;;;;8.57;3.90;;;;;;;10.76;100.00;100300.13;5059535;28;20044;-86
2021/10/06 00:45:13;;;;;;;6.43;3.70;;;;;;;10.76;100.00;100301.97;5033646;28;20516;-83
2021/10/06 00:47:38;;;;;;;11.82;4.18;;;;;;;10.74;100.00;100296.78;5056460;28;20111;-86
2021/10/06 00:50:05;;;;;;;6.30;3.47;;;;;;;10.74;100.00;100298.63;5049533;28;20131;-89
2021/10/06 00:52:36;;;;;;;10.65;4.10;;;;;;;10.75;100.00;100301.13;5033989;28;20444;-85
2021/10/06 00:55:03;;;;;;;7.13;3.72;;;;;;;10.79;100.00;100296.25;5025270;28;20464;-87
2021/10/06 00:57:29;;;;;;;8.95;3.40;;;;;;;10.77;100.00;100314.38;5060070;28;20041;-86
2021/10/06 00:59:56;;;;;;;6.70;3.00;;;;;;;10.83;100.00;100302.94;5033434;28;20064;-86
2021/10/06 01:02:21;;;;;;;5.43;2.53;;;;;;;10.85;100.00;100306.28;5043189;28;20398;-83
2021/10/06 01:04:47;;;;;;;11.48;3.22;;;;;;;10.88;100.00;100310.47;5027347;28;20057;-87
2021/10/06 01:07:12;;;;;;;5.70;2.47;;;;;;;10.91;100.00;100305.56;5026155;28;20032;-85
2021/10/06 01:09:39;;;;;;;10.93;3.15;;;;;;;10.93;100.00;100306.19;5056646;28;20124;-88
2021/10/06 01:12:05;;;;;;;7.22;2.92;;;;;;;10.92;100.00;100307.22;5031415;28;20049;-86
2021/10/06 01:14:30;;;;;;;8.00;3.25;;;;;;;10.97;100.00;100315.59;5046426;28;20485;-86
2021/10/06 01:16:56;;;;;;;6.32;2.85;;;;;;;10.97;100.00;100312.91;5041403;28;20126;-84
2021/10/06 01:19:24;;;;;;;8.55;3.20;;;;;;;10.95;100.00;100300.66;5022049;28;20452;-84
2021/10/06 01:21:51;;;;;;;7.75;3.20;;;;;;;10.95;100.00;100306.88;5050192;28;20041;-87
2021/10/06 01:24:17;;;;;;;6.18;3.30;;;;;;;10.95;100.00;100316.78;5048651;28;20184;-85
2021/10/06 01:26:42;;;;;;;10.70;3.22;;;;;;;10.96;100.00;100316.63;5065704;28;20040;-87
2021/10/06 01:29:08;;;;;;;7.68;3.10;;;;;;;11.00;100.00;100315.22;5063664;28;20062;-85
2021/10/06 01:31:33;;;;;;;7.55;3.00;;;;;;;11.02;100.00;100313.22;5048106;28;20344;-87
2021/10/06 01:33:59;;;;;;;5.78;2.72;;;;;;;11.03;100.00;100324.78;5080504;28;20089;-87
2021/10/06 01:36:24;;;;;;;6.43;2.88;;;;;;;11.01;100.00;100335.69;5061409;28;20033;-88
2021/10/06 01:38:50;;;;;;;9.15;3.20;;;;;;;11.00;100.00;100323.28;5062347;28;20032;-88
2021/10/06 01:41:15;;;;;;;6.25;3.63;;;;;;;11.03;100.00;100328.28;5065484;28;20542;-85
2021/10/06 01:43:41;;;;;;;8.73;4.05;;;;;;;11.01;100.00;100324.94;5060292;28;20037;-87
2021/10/06 01:46:06;;;;;;;8.57;4.45;;;;;;;11.02;100.00;100329.31;5064873;28;20044;-87
2021/10/06 01:48:31;;;;;;;9.15;4.32;;;;;;;11.02;100.00;100329.31;5073846;28;20036;-86
2021/10/06 01:50:57;;;;;;;10.70;4.38;;;;;;;11.04;99.97;100335.31;5066387;28;20109;-85
2021/10/06 01:53:22;;;;;;;10.43;4.75;;;;;;;11.05;100.00;100334.34;5065619;28;20496;-85
2021/10/06 01:55:48;;;;;;;10.00;4.35;;;;;;;11.05;99.76;100330.81;5066654;28;20081;-88
2021/10/06 01:58:17;;;;;;;9.70;4.93;;;;;;;11.07;99.78;100332.28;5049790;28;20366;-87
2021/10/06 02:00:45;;;;;;;9.55;5.20;;;;;;;11.02;99.95;100334.69;5066108;28;20048;-83
2021/10/06 02:03:11;;;;;;;9.93;5.53;;;;;;;11.01;99.81;100341.06;5060008;28;20384;-89
2021/10/06 02:05:37;;;;;;;10.73;5.40;;;;;;;11.03;99.62;100336.34;5051529;28;20048;-87
2021/10/06 02:08:04;;;;;;;8.75;5.53;;;;;;;11.05;99.58;100352.31;5066674;28;20082;-87
2021/10/06 02:10:30;;;;;;;9.60;4.53;;;;;;;11.04;99.09;100332.63;5048232;28;20072;-86
2021/10/06 02:12:57;;;;;;;7.35;4.05;;;;;;;11.03;98.79;100336.34;5081211;28;20113;-84
2021/10/06 02:15:22;;;;;;;9.65;5.18;;;;;;;11.02;99.07;100332.00;5068493;28;20040;-91
2021/10/06 02:17:47;;;;;;;7.20;4.20;;;;;;;11.03;99.11;100335.53;5066822;28;20051;-85
2021/10/06 02:20:13;;;;;;;9.98;4.00;;;;;;;11.04;99.09;100337.19;5062417;28;20032;-89
2021/10/06 02:22:38;;;;;;;11.55;4.78;;;;;;;11.00;99.28;100328.66;5059486;28;20044;-85
2021/10/06 02:25:05;;;;;;;11.35;4.50;;;;;;;10.97;98.69;100337.06;5065030;28;20086;-85
2021/10/06 02:27:30;;;;;;;9.50;4.20;;;;;;;11.00;98.47;100330.50;5062156;28;20033;-85
2021/10/06 02:29:55;;;;;;;13.75;4.32;;;;;;;10.95;98.58;100322.97;5059205;28;20066;-87
2021/10/06 02:32:21;;;;;;;8.48;4.60;;;;;;;10.98;98.62;100337.91;5063395;28;20127;-87
2021/10/06 02:34:46;;;;;;;6.40;3.75;;;;;;;10.95;98.62;100333.72;5057752;28;20621;-88
2021/10/06 02:37:11;;;;;;;10.95;4.40;;;;;;;10.91;98.88;100336.94;5062827;28;20051;-83
2021/10/06 02:39:37;;;;;;;11.27;4.00;;;;;;;10.90;99.11;100346.81;5065204;28;20128;-89
2021/10/06 02:42:03;;;;;;;9.30;3.95;;;;;;;10.88;99.37;100337.31;5079393;28;20151;-86
2021/10/06 02:44:28;;;;;;;12.10;4.07;;;;;;;10.92;99.24;100349.34;5066436;28;20041;-86
2021/10/06 02:46:53;;;;;;;12.18;4.13;;;;;;;10.88;99.19;100340.81;5065788;28;20045;-83
2021/10/06 02:49:19;;;;;;;8.63;3.78;;;;;;;10.87;99.27;100331.06;5066035;28;20054;-87
2021/10/06 02:51:44;;;;;;;9.68;3.88;;;;;;;10.88;99.13;100337.31;5051867;28;20046;-88
2021/10/06 02:54:10;;;;;;;8.43;3.47;;;;;;;10.88;99.16;100337.31;5062824;28;20443;-86
2021/10/06 02:56:35;;;;;;;12.98;4.45;;;;;;;10.91;99.07;100334.25;5063963;28;20044;-84
2021/10/06 02:59:00;;;;;;;10.05;3.53;;;;;;;10.90;99.05;100348.69;5066486;28;20131;-87
2021/10/06 03:01:26;;;;;;;9.48;3.72;;;;;;;10.91;98.86;100348.53;5045871;28;20028;-85
2021/10/06 03:03:51;;;;;;;7.70;3.30;;;;;;;10.89;98.96;100352.41;5065454;28;20036;-86
2021/10/06 03:06:16;;;;;;;8.90;3.30;;;;;;;10.88;99.14;100346.19;5064711;28;20036;-85
2021/10/06 03:08:42;;;;;;;10.00;3.55;;;;;;;10.89;99.14;100355.91;5046208;28;20048;-85
2021/10/06 03:11:07;;;;;;;10.00;3.83;;;;;;;10.86;99.33;100355.44;5023863;28;20045;-86
2021/10/06 03:13:32;;;;;;;8.50;3.67;;;;;;;10.88;98.97;100351.56;5060085;28;20492;-88
2021/10/06 03:15:59;;;;;;;9.65;3.47;;;;;;;10.87;99.47;100351.72;5069229;28;20059;-86
2021/10/06 03:18:25;;;;;;;8.00;3.00;;;;;;;10.82;99.32;100350.41;5065360;28;20044;-86
2021/10/06 03:20:53;;;;;;;10.05;3.33;;;;;;;10.86;99.38;100356.25;5067861;28;20124;-86
2021/10/06 03:23:19;;;;;;;8.82;3.42;;;;;;;10.84;99.40;100352.91;5083217;28;20400;-85
2021/10/06 03:25:45;;;;;;;7.97;3.25;;;;;;;10.82;99.28;100354.97;5067321;28;20033;-84
2021/10/06 03:28:10;;;;;;;10.15;4.28;;;;;;;10.82;99.27;100360.31;5058531;28;20029;-86
2021/10/06 03:30:36;;;;;;;10.50;3.60;;;;;;;10.85;99.49;100359.97;5055425;28;20048;-86
2021/10/06 03:33:02;;;;;;;10.00;3.60;;;;;;;10.87;99.56;100357.09;5068822;28;20036;-86
2021/10/06 03:35:28;;;;;;;9.00;3.20;;;;;;;10.86;99.37;100358.94;5062824;28;20063;-84
2021/10/06 03:37:55;;;;;;;6.72;2.72;;;;;;;10.84;99.55;100359.09;5079025;28;20055;-87
2021/10/06 03:40:21;;;;;;;9.80;3.20;;;;;;;10.79;100.00;100371.41;5065804;28;20068;-84
2021/10/06 03:42:46;;;;;;;9.43;3.85;;;;;;;10.81;100.00;100369.38;5055828;28;20068;-87
2021/10/06 03:45:14;;;;;;;9.25;3.65;;;;;;;10.79;100.00;100372.25;5043121;28;20391;-88
2021/10/06 03:47:41;;;;;;;12.40;4.32;;;;;;;10.75;100.00;100372.75;5063779;28;20052;-84
2021/10/06 03:50:08;;;;;;;7.68;3.85;;;;;;;10.71;100.00;100369.59;5059065;28;20059;-85
2021/10/06 03:52:33;;;;;;;10.93;3.78;;;;;;;10.73;100.00;100375.63;5064127;28;20044;-89
2021/10/06 03:54:59;;;;;;;9.77;3.65;;;;;;;10.74;100.00;100373.78;5062417;28;20098;-88
2021/10/06 03:57:24;;;;;;;9.93;3.58;;;;;;;10.73;100.00;100369.41;5064149;28;20036;-85
2021/10/06 03:59:50;;;;;;;14.27;3.92;;;;;;;10.77;100.00;100379.63;5068636;28;20122;-89
2021/10/06 04:02:15;;;;;;;12.05;3.40;;;;;;;10.77;100.00;100373.44;5059792;28;20484;-87
2021/10/06 04:04:42;;;;;;;6.30;2.92;;;;;;;10.75;100.00;100365.53;5027710;28;20110;-87
2021/10/06 04:07:07;;;;;;;13.27;4.25;;;;;;;10.81;100.00;100374.72;5054303;28;20082;-91
2021/10/06 04:09:34;;;;;;;10.05;3.50;;;;;;;10.82;100.00;100381.81;5044857;28;20040;-86
2021/10/06 04:12:00;;;;;;;8.77;2.97;;;;;;;10.81;99.83;100380.94;5066156;28;20102;-92
2021/10/06 04:14:28;;;;;;;9.40;3.40;;;;;;;10.82;100.00;100379.13;5034498;28;20049;-92
2021/10/06 04:16:54;;;;;;;8.50;3.42;;;;;;;10.83;100.00;100386.13;5060213;28;20040;-88
2021/10/06 04:19:21;;;;;;;9.07;3.70;;;;;;;10.81;100.00;100380.09;5072493;28;20058;-91
2021/10/06 04:21:47;;;;;;;9.50;3.25;;;;;;;10.83;100.00;100386.13;5062037;28;20101;-85
2021/10/06 04:24:12;;;;;;;7.63;3.08;;;;;;;10.79;100.00;100385.66;5071708;28;20449;-86
2021/10/06 04:26:40;;;;;;;8.73;2.95;;;;;;;10.75;100.00;100384.31;5057389;28;20051;-87
2021/10/06 04:29:07;;;;;;;7.60;2.80;;;;;;;10.77;100.00;100385.00;5062419;28;20036;-85
2021/10/06 04:31:34;;;;;;;10.85;3.22;;;;;;;10.75;100.00;100392.38;5063743;28;20060;-89
2021/10/06 04:34:02;;;;;;;11.48;3.35;;;;;;;10.79;100.00;100400.94;5059548;28;20047;-87
2021/10/06 04:36:29;;;;;;;6.85;2.58;;;;;;;10.78;99.95;100399.25;5047918;28;20057;-88
2021/10/06 04:38:55;;;;;;;11.32;3.10;;;;;;;10.76;100.00;100398.56;5057536;28;20127;-90
2021/10/06 04:41:20;;;;;;;8.98;2.63;;;;;;;10.75;100.00;100416.53;5064231;28;20490;-85
2021/10/06 04:43:46;;;;;;;7.90;2.70;;;;;;;10.77;100.00;100408.31;5066061;28;20040;-86
2021/10/06 04:46:13;;;;;;;6.95;2.60;;;;;;;10.76;100.00;100403.94;5051063;28;20056;-84
2021/10/06 04:48:39;;;;;;;7.47;2.85;;;;;;;10.78;100.00;100412.66;5065213;28;20048;-87
2021/10/06 04:51:05;;;;;;;11.07;3.13;;;;;;;10.76;100.00;100412.00;5064113;28;20561;-86
2021/10/06 04:53:33;;;;;;;7.75;2.75;;;;;;;10.69;100.00;100403.81;5046334;28;20045;-87
2021/10/06 04:56:00;;;;;;;8.48;3.03;;;;;;;10.65;100.00;100423.13;5049122;28;20123;-89
2021/10/06 04:58:28;;;;;;;6.97;3.08;;;;;;;10.68;100.00;100417.41;5046710;28;20028;-88
2021/10/06 05:00:59;;;;;;;7.95;3.22;;;;;;;10.67;100.00;100411.19;5061970;28;20075;-86
2021/10/06 05:03:25;;;;;;;5.88;2.53;;;;;;;10.62;100.00;100429.69;5055721;28;20141;-90
2021/10/06 05:05:50;;;;;;;11.05;4.00;;;;;;;10.59;100.00;100428.19;5051625;28;20033;-89
2021/10/06 05:08:15;;;;;;;9.35;3.92;;;;;;;10.56;100.00;100420.47;5063760;28;20354;-84
2021/10/06 05:10:43;;;;;;;9.57;3.90;;;;;;;10.56;100.00;100420.47;5032371;28;20074;-87
2021/10/06 05:13:14;;;;;;;8.65;3.33;;;;;;;10.55;100.00;100426.00;5065940;28;20040;-85
2021/10/06 05:15:41;;;;;;;7.97;3.10;;;;;;;10.53;100.00;100423.50;5059152;28;20401;-90
2021/10/06 05:18:06;;;;;;;8.68;3.40;;;;;;;10.53;100.00;100426.19;5048984;28;20170;-89
2021/10/06 05:20:32;;;;;;;8.00;3.45;;;;;;;10.51;100.00;100425.53;5046740;28;20505;-86
2021/10/06 05:22:57;;;;;;;10.63;3.65;;;;;;;10.48;100.00;100428.56;5066717;28;20547;-88
2021/10/06 05:25:24;;;;;;;9.10;3.50;;;;;;;10.48;100.00;100431.22;5058058;28;20130;-85
2021/10/06 05:27:50;;;;;;;9.57;3.92;;;;;;;10.46;100.00;100440.47;5047253;28;20528;-88
2021/10/06 05:30:16;;;;;;;9.50;3.58;;;;;;;10.45;100.00;100428.06;5058109;28;20132;-85
2021/10/06 05:32:42;;;;;;;10.52;3.15;;;;;;;10.43;100.00;100440.81;5080208;28;20041;-84
2021/10/06 05:35:09;;;;;;;8.10;3.67;;;;;;;10.45;100.00;100439.63;5055755;28;20500;-84
2021/10/06 05:37:35;;;;;;;11.68;4.38;;;;;;;10.49;100.00;100430.22;5066599;28;20044;-85
2021/10/06 05:40:03;;;;;;;11.95;4.25;;;;;;;10.45;100.00;100444.16;5056358;28;20051;-91
2021/10/06 05:42:30;;;;;;;12.83;4.27;;;;;;;10.46;100.00;100445.81;5042760;28;20044;-87
2021/10/06 05:44:55;;;;;;;10.60;4.50;;;;;;;10.46;100.00;100429.72;5040924;28;20524;-87
2021/10/06 05:47:27;;;;;;;9.23;3.67;;;;;;;10.41;100.00;100440.13;5025433;28;20041;-85
2021/10/06 05:49:54;;;;;;;7.18;3.70;;;;;;;10.44;100.00;100423.69;5028495;28;20053;-84
2021/10/06 05:52:22;;;;;;;9.60;3.70;;;;;;;10.44;100.00;100426.38;5035060;28;20045;-87
2021/10/06 05:54:48;;;;;;;14.05;4.00;;;;;;;10.46;100.00;100424.38;5038625;28;20029;-86
2021/10/06 05:57:13;;;;;;;8.40;3.67;;;;;;;10.48;100.00;100439.28;5039238;28;20084;-87
2021/10/06 05:59:39;;;;;;;10.20;3.63;;;;;;;10.49;100.00;100443.63;5041241;28;20077;-88
2021/10/06 06:02:06;;;;;;;9.27;3.50;;;;;;;10.50;100.00;100437.28;5036583;28;20033;-88
2021/10/06 06:04:32;;;;;;;8.23;3.70;;;;;;;10.54;100.00;100448.50;5061244;28;20063;-85
2021/10/06 06:06:58;;;;;;;7.28;4.20;;;;;;;10.56;100.00;100452.69;5029362;28;20108;-87
2021/10/06 06:09:25;;;;;;;11.77;4.75;;;;;;;10.55;100.00;100450.97;5057051;28;20052;-84
2021/10/06 06:11:52;;;;;;;9.57;4.18;;;;;;;10.59;100.00;100452.34;5060666;28;20063;-87
2021/10/06 06:14:18;;;;;;;8.43;3.35;;;;;;;10.60;100.00;100435.22;5045966;28;20044;-91
2021/10/06 06:16:45;;;;;;;8.88;3.78;;;;;;;10.63;100.00;100444.75;5065455;28;20032;-87
2021/10/06 06:19:10;;;;;;;10.07;3.97;;;;;;;10.62;100.00;100443.09;5060022;28;20493;-87
2021/10/06 06:21:42;;;;;;;10.68;3.35;;;;;;;10.61;100.00;100455.66;5060384;28;20044;-87
2021/10/06 06:24:16;;;;;;;9.38;3.50;;;;;;;10.64;100.00;100456.34;5052972;28;20442;-88
2021/10/06 06:26:42;;;;;;;7.10;3.28;;;;;;;10.67;100.00;100458.66;5056255;28;20192;-86
2021/10/06 06:29:07;;;;;;;10.30;3.60;;;;;;;10.68;100.00;100455.00;5031545;28;20041;-88
2021/10/06 06:31:33;;;;;;;8.15;3.55;;;;;;;10.70;99.55;100464.50;5031541;28;20405;-86
2021/10/06 06:33:58;;;;;;;6.43;2.95;;;;;;;10.72;99.67;100461.69;5027428;28;20482;-82
2021/10/06 06:36:24;;;;;;;8.80;3.47;;;;;;;10.74;99.37;100455.13;5023542;28;20414;-86
2021/10/06 06:38:49;;;;;;;6.95;2.83;;;;;;;10.75;99.31;100451.41;5037930;28;20486;-87
2021/10/06 06:41:15;;;;;;;10.73;2.97;;;;;;;10.72;99.39;100451.78;5023731;28;20525;-87
2021/10/06 06:43:41;;;;;;;7.47;3.30;;;;;;;10.71;98.81;100444.75;5056628;28;20048;-87
2021/10/06 06:46:07;;;;;;;10.57;3.33;;;;;;;10.72;98.53;100449.09;5073512;28;20041;-85
2021/10/06 06:48:33;;;;;;;9.40;3.53;;;;;;;10.73;98.55;100447.22;5059535;28;20040;-91
2021/10/06 06:50:59;;;;;;;9.43;2.80;;;;;;;10.72;98.60;100453.63;5063843;28;20040;-89
2021/10/06 06:53:27;;;;;;;7.32;2.53;;;;;;;10.71;99.17;100444.75;5052048;28;20569;-82
2021/10/06 06:56:03;;;;;;;8.98;3.20;;;;;;;10.72;99.40;100459.00;5066930;28;20147;-84
2021/10/06 06:58:36;;;;;;;7.88;3.67;;;;;;;10.70;99.76;100455.63;5062111;28;20147;-88
2021/10/06 07:01:03;;;;;;;9.35;3.13;;;;;;;10.66;99.60;100463.19;5077157;28;20229;-86
2021/10/06 07:03:29;;;;;;;6.70;2.90;;;;;;;10.66;99.87;100462.38;5041429;28;20044;-88
2021/10/06 07:05:54;;;;;;;8.30;3.15;;;;;;;10.65;100.00;100469.59;5041673;28;20296;-86
2021/10/06 07:08:20;;;;;;;5.85;2.50;;;;;;;10.64;100.00;100469.75;5049783;28;20490;-84
2021/10/06 07:10:47;;;;;;;9.43;2.65;;;;;;;10.59;100.00;100460.38;5046311;28;20049;-86
2021/10/06 07:13:13;;;;;;;9.00;2.97;;;;;;;10.56;100.00;100457.22;5031230;28;20068;-88
2021/10/06 07:15:38;;;;;;;8.82;2.50;;;;;;;10.64;100.00;100475.13;5049802;28;20442;-86
2021/10/06 07:18:05;;;;;;;8.02;2.70;;;;;;;10.67;100.00;100485.50;5062763;28;20053;-83
2021/10/06 07:20:32;;;;;;;7.97;3.03;;;;;;;10.63;100.00;100485.00;5079161;28;20047;-82
2021/10/06 07:22:59;;;;;;;6.28;3.03;;;;;;;10.59;100.00;100486.38;5058053;28;20123;-87
2021/10/06 07:25:27;;;;;;;9.98;2.78;;;;;;;10.50;100.00;100482.88;5050655;28;20090;-88
2021/10/06 07:27:58;;;;;;;8.85;2.90;;;;;;;10.55;100.00;100485.03;5066130;28;20044;-88
2021/10/06 07:30:25;;;;;;;9.40;3.20;;;;;;;10.57;100.00;100488.38;5054485;28;20390;-83
2021/10/06 07:32:51;;;;;;;5.25;3.03;;;;;;;10.52;100.00;100483.53;5049299;28;20048;-88
2021/10/06 07:35:17;;;;;;;7.80;2.67;;;;;;;10.52;100.00;100496.09;5045833;28;20068;-89
2021/10/06 07:37:44;;;;;;;5.28;2.47;;;;;;;10.56;100.00;100505.50;5055312;28;20095;-89
2021/10/06 07:40:11;;;;;;;7.50;2.67;;;;;;;10.52;100.00;100483.53;5035068;28;20044;-84
2021/10/06 07:42:36;;;;;;;6.47;2.80;;;;;;;10.54;100.00;100496.78;5046430;28;20045;-83
2021/10/06 07:45:02;;;;;;;6.90;2.80;;;;;;;10.53;100.00;100487.91;5039938;28;20505;-91
2021/10/06 07:47:29;;;;;;;11.50;3.17;;;;;;;10.50;100.00;100500.78;5058987;28;20545;-89
2021/10/06 07:49:55;;;;;;;10.13;2.83;;;;;;;10.48;100.00;100502.84;5045646;28;20446;-89
2021/10/06 07:52:22;;;;;;;8.35;3.25;;;;;;;10.41;100.00;100499.97;5034591;28;20053;-88
2021/10/06 07:54:47;;;;;;;8.82;2.97;;;;;;;10.41;100.00;100504.50;5039548;28;20045;-83
2021/10/06 07:57:12;;;;;;;8.38;2.85;;;;;;;10.44;100.00;100505.00;5043497;28;20052;-86
2021/10/06 07:59:40;;;;;;;5.10;2.55;;;;;;;10.40;100.00;100501.00;5044804;28;20432;-86
2021/10/06 08:02:07;;;;;;;7.28;3.00;;;;;;;10.41;100.00;100505.34;5049552;28;20045;-89
2021/10/06 08:04:34;;;;;;;7.35;3.03;;;;;;;10.38;100.00;100519.94;5044051;28;20496;-90
2021/10/06 08:07:01;;;;;;;7.60;3.60;;;;;;;10.35;100.00;100508.72;5037126;28;20481;-82
2021/10/06 08:09:26;;;;;;;4.97;2.88;;;;;;;10.31;100.00;100512.75;5042800;28;20512;-86
2021/10/06 08:11:52;;;;;;;8.43;3.65;;;;;;;10.27;100.00;100516.75;5041919;28;20132;-86
2021/10/06 08:14:25;;;;;;;10.15;3.53;;;;;;;10.30;100.00;100525.31;5019674;28;20041;-83
2021/10/06 08:16:51;;;;;;;6.28;3.17;;;;;;;10.28;100.00;100530.00;5057033;28;20045;-84
2021/10/06 08:19:16;;;;;;;6.47;3.00;;;;;;;10.34;100.00;100531.19;5043216;28;20551;-87
2021/10/06 08:21:42;;;;;;;9.02;3.55;;;;;;;10.35;100.00;100525.63;5043045;28;20521;-85
2021/10/06 08:24:07;;;;;;;7.45;3.40;;;;;;;10.32;100.00;100525.97;5059796;28;20127;-86
2021/10/06 08:26:34;;;;;;;6.75;3.55;;;;;;;10.35;100.00;100536.34;5059451;28;20118;-87
2021/10/06 08:28:59;;;;;;;7.68;3.92;;;;;;;10.41;100.00;100539.38;5063228;28;20041;-87
2021/10/06 08:31:24;;;;;;;8.55;3.80;;;;;;;10.41;100.00;100550.94;5065044;28;20078;-89
2021/10/06 08:33:50;;;;;;;7.55;3.50;;;;;;;10.45;100.00;100554.16;5053804;28;20045;-90
2021/10/06 08:36:17;;;;;;;6.25;3.95;;;;;;;10.43;100.00;100559.66;5062934;28;20089;-88
2021/10/06 08:38:43;;;;;;;8.98;3.35;;;;;;;10.46;100.00;100561.19;5032181;28;20453;-89
2021/10/06 08:41:08;;;;;;;7.90;3.20;;;;;;;10.46;100.00;100574.59;5050483;28;20741;-86
2021/10/06 08:43:37;;;;;;;7.75;3.72;;;;;;;10.45;100.00;100563.03;5066599;28;20041;-88
2021/10/06 08:46:02;;;;;;;9.37;4.23;;;;;;;10.42;100.00;100563.38;5048026;28;20059;-88
2021/10/06 08:48:28;;;;;;;7.80;3.97;;;;;;;10.46;100.00;100567.38;5058193;28;20037;-84
2021/10/06 08:50:55;;;;;;;7.63;4.30;;;;;;;10.47;100.00;100568.22;5061856;28;20051;-84
2021/10/06 08:53:23;;;;;;;6.65;4.05;;;;;;;10.49;100.00;100582.31;5062376;28;20048;-83
2021/10/06 08:55:49;;;;;;;9.10;4.45;;;;;;;10.49;100.00;100571.56;5064140;28;20473;-83
2021/10/06 08:58:16;;;;;;;8.80;4.38;;;;;;;10.50;100.00;100574.09;5061369;28;20413;-84
2021/10/06 09:00:52;;;;;;;8.70;3.88;;;;;;;10.57;100.00;100582.31;5063604;28;20127;-88
2021/10/06 09:03:40;;;;;;;7.18;4.55;;;;;;;10.63;100.00;100570.88;5049554;28;20112;-88
2021/10/06 09:06:14;;;;;;;10.20;4.30;;;;;;;10.61;100.00;100578.25;5041273;28;20056;-87
2021/10/06 09:08:45;;;;;;;5.65;3.25;;;;;;;10.61;100.00;100586.31;5056202;28;20452;-86
2021/10/06 09:11:12;;;;;;;6.05;3.20;;;;;;;10.66;100.00;100581.28;5037280;28;20064;-84
2021/10/06 09:13:42;;;;;;;8.10;3.58;;;;;;;10.68;100.00;100590.00;5049096;28;20044;-87
2021/10/06 09:16:10;;;;;;;7.30;3.30;;;;;;;10.70;100.00;100604.06;5064738;28;20408;-87
2021/10/06 09:18:36;;;;;;;5.22;2.95;;;;;;;10.71;100.00;100595.03;5044566;28;20484;-87
2021/10/06 09:21:05;;;;;;;7.78;2.95;;;;;;;10.74;100.00;100589.31;5046724;28;20452;-82
2021/10/06 09:23:37;;;;;;;12.02;4.00;;;;;;;10.75;100.00;100604.41;5064270;28;20415;-83
2021/10/06 09:26:07;;;;;;;6.00;3.47;;;;;;;10.78;100.00;100596.00;5064451;28;20228;-82
2021/10/06 09:28:37;;;;;;;6.38;3.55;;;;;;;10.78;100.00;100605.91;5063111;28;20047;-87
2021/10/06 09:31:08;;;;;;;8.60;4.10;;;;;;;10.78;100.00;100614.81;5056941;28;20061;-89
2021/10/06 09:33:56;;;;;;;6.95;4.00;;;;;;;10.81;100.00;100610.94;5061378;28;20215;-86
2021/10/06 09:36:36;;;;;;;6.77;4.13;;;;;;;10.79;100.00;100618.34;5043027;28;20048;-90
2021/10/06 09:39:03;;;;;;;7.13;3.17;;;;;;;10.73;100.00;100635.09;5062852;28;20386;-82
2021/10/06 09:41:46;;;;;;;4.55;3.22;;;;;;;10.74;100.00;100632.25;5072632;28;20036;-83
2021/10/06 09:44:20;;;;;;;5.10;3.15;;;;;;;10.74;100.00;100629.59;5069350;28;20043;-82
2021/10/06 09:46:49;;;;;;;5.28;3.10;;;;;;;10.71;100.00;100629.91;5018850;28;20149;-85
2021/10/06 09:49:35;;;;;;;6.38;3.33;;;;;;;10.68;100.00;100640.16;5068424;28;20116;-83
2021/10/06 09:52:25;;;;;;;7.85;3.85;;;;;;;10.65;100.00;100637.81;5073747;28;20060;-82
2021/10/06 09:54:52;;;;;;;6.50;2.97;;;;;;;10.60;100.00;100641.81;5072508;28;20059;-83
2021/10/06 09:57:29;;;;;;;7.40;4.32;;;;;;;10.57;100.00;100650.22;5068498;28;20039;-83
2021/10/06 10:00:10;;;;;;;6.35;3.70;;;;;;;10.59;100.00;100645.53;5068513;28;20051;-82
2021/10/06 10:02:36;;;;;;;8.65;4.18;;;;;;;10.59;100.00;100642.84;5036267;28;20052;-84
2021/10/06 10:05:05;;;;;;;6.50;4.05;;;;;;;10.54;100.00;100647.88;5044412;28;20069;-82
2021/10/06 10:07:31;;;;;;;7.85;5.28;;;;;;;10.54;100.00;100647.03;5073894;28;20041;-88
2021/10/06 10:09:58;;;;;;;7.25;5.13;;;;;;;10.58;100.00;100656.41;5047600;28;20128;-84
2021/10/06 10:12:25;;;;;;;7.50;4.00;;;;;;;10.60;100.00;100649.03;5051294;28;20077;-82
2021/10/06 10:14:53;;;;;;;7.88;4.15;;;;;;;10.59;100.00;100658.09;5053333;28;20069;-83
2021/10/06 10:17:20;;;;;;;8.57;5.25;;;;;;;10.57;100.00;100652.91;5047159;28;20116;-83
2021/10/06 10:20:01;;;;;;;6.63;4.03;;;;;;;10.57;100.00;100662.78;5045302;28;20041;-85
2021/10/06 10:22:32;;;;;;;6.85;4.68;;;;;;;10.64;100.00;100649.53;5034712;28;20050;-82
2021/10/06 10:25:14;;;;;;;6.88;5.20;;;;;;;10.68;100.00;100665.16;5042839;28;20490;-85
2021/10/06 10:27:58;;;;;;;7.38;4.72;;;;;;;10.62;100.00;100655.09;5055877;28;20036;-86
2021/10/06 10:30:24;;;;;;;6.72;4.75;;;;;;;10.62;100.00;100660.47;5070394;28;20104;-89
2021/10/06 10:32:50;;;;;;;7.28;5.60;;;;;;;10.64;100.00;100657.59;5063699;28;20044;-86
2021/10/06 10:35:18;;;;;;;8.32;5.20;;;;;;;10.70;100.00;100660.44;5063429;28;20044;-89
2021/10/06 10:37:49;;;;;;;9.18;5.57;;;;;;;10.73;100.00;100670.84;5057703;28;20230;-89
2021/10/06 10:40:36;;;;;;;9.40;6.80;;;;;;;10.75;100.00;100676.03;5045745;28;20091;-88
2021/10/06 10:43:03;;;;;;;5.88;4.40;;;;;;;10.76;100.00;100689.31;5052960;28;20049;-87
2021/10/06 10:45:50;;;;;;;9.88;4.63;;;;;;;10.84;100.00;100680.38;5067729;28;20049;-85
2021/10/06 10:48:20;;;;;;;9.27;4.80;;;;;;;10.98;100.00;100676.19;5066666;28;20052;-83
2021/10/06 10:50:47;;;;;;;6.45;4.32;;;;;;;11.09;100.00;100675.00;5071405;28;20132;-84
2021/10/06 10:53:51;;;;;;;6.40;4.03;;;;;;;11.13;100.00;100682.53;5077129;28;20044;-81
2021/10/06 10:56:49;;;;;;;7.22;3.88;;;;;;;11.20;100.00;100682.72;5074496;28;20028;-83
2021/10/06 10:59:23;;;;;;;6.40;3.72;;;;;;;11.23;100.00;100690.44;5070789;28;20127;-82
2021/10/06 11:01:58;;;;;;;6.35;4.32;;;;;;;11.26;100.00;100687.41;5053357;28;20052;-82
2021/10/06 11:04:35;;;;;;;6.18;4.45;;;;;;;11.30;100.00;100683.34;5064932;28;20045;-89
2021/10/06 11:07:19;;;;;;;5.93;3.55;;;;;;;11.35;100.00;100689.06;5062913;28;20036;-83
2021/10/06 11:09:47;;;;;;;7.55;4.40;;;;;;;11.42;100.00;100690.06;5066269;28;20054;-89
2021/10/06 11:12:14;;;;;;;5.43;3.80;;;;;;;11.50;100.00;100694.53;5070650;28;20089;-87
2021/10/06 11:14:46;;;;;;;5.95;3.90;;;;;;;11.64;100.00;100693.00;5050161;28;20048;-92
2021/10/06 11:17:16;;;;;;;8.05;3.85;;;;;;;11.66;100.00;100707.09;5044944;28;20041;-86
2021/10/06 11:19:44;;;;;;;6.10;3.80;;;;;;;11.63;100.00;100699.41;5079982;28;20048;-87